createdAt,value
2019-02-14T00:00:37.689Z,103134.63
2019-02-14T00:03:05.494Z,103144.48
2019-02-14T00:05:33.260Z,103147.11
2019-02-14T00:08:01.035Z,103147.08
2019-02-14T00:10:28.767Z,103156.93
2019-02-14T00:12:56.528Z,103157.42
2019-02-14T00:15:24.339Z,103166.36
2019-02-14T00:17:52.110Z,103161.95
2019-02-14T00:20:19.885Z,103168.17
2019-02-14T00:22:47.652Z,103158.73
2019-02-14T00:25:15.481Z,103159.15
2019-02-14T00:27:43.590Z,103163.30
2019-02-14T00:30:11.332Z,103161.37
2019-02-14T00:32:39.224Z,103161.43
2019-02-14T00:35:06.985Z,103153.89
2019-02-14T00:37:34.777Z,103155.12
2019-02-14T00:40:02.549Z,103148.89
2019-02-14T00:42:30.318Z,103153.37
2019-02-14T00:44:58.124Z,103159.56
2019-02-14T00:47:25.922Z,103162.27
2019-02-14T00:49:53.734Z,103151.11
2019-02-14T00:52:21.528Z,103148.87
2019-02-14T00:54:49.427Z,103150.62
2019-02-14T00:57:17.170Z,103154.59
2019-02-14T00:59:44.939Z,103152.75
2019-02-14T01:02:12.768Z,103148.75
2019-02-14T01:04:40.522Z,103145.66
2019-02-14T01:07:35.118Z,103148.78
2019-02-14T01:10:08.153Z,103147.55
2019-02-14T01:12:38.757Z,103148.37
2019-02-14T01:15:11.181Z,103145.19
2019-02-14T01:17:39.292Z,103160.03
2019-02-14T01:20:07.123Z,103160.88
2019-02-14T01:22:34.860Z,103154.19
2019-02-14T01:25:02.612Z,103151.47
2019-02-14T01:27:30.360Z,103144.28
2019-02-14T01:29:58.441Z,103146.97
2019-02-14T01:32:26.291Z,103149.69
2019-02-14T01:34:54.064Z,103148.75
2019-02-14T01:37:21.873Z,103148.75
2019-02-14T01:39:49.664Z,103094.82
2019-02-14T01:42:17.449Z,103131.26
2019-02-14T01:44:45.258Z,103130.33
2019-02-14T01:47:13.007Z,103124.57
2019-02-14T01:49:40.921Z,103132.14
2019-02-14T01:52:08.681Z,103110.59
2019-02-14T01:54:36.784Z,103125.45
2019-02-14T01:57:04.606Z,103121.01
2019-02-14T01:59:32.422Z,103116.98
2019-02-14T02:02:03.100Z,103111.11
2019-02-14T02:04:30.841Z,103099.02
2019-02-14T02:06:58.687Z,103093.70
2019-02-14T02:09:26.467Z,103089.64
2019-02-14T02:11:54.277Z,103084.24
2019-02-14T02:14:22.029Z,103091.44
2019-02-14T02:16:50.000Z,103094.60
2019-02-14T02:19:17.804Z,103091.03
2019-02-14T02:21:45.621Z,103099.98
2019-02-14T02:24:13.390Z,103087.80
2019-02-14T02:26:41.134Z,103107.52
2019-02-14T02:29:09.009Z,103110.64
2019-02-14T02:31:36.758Z,103103.05
2019-02-14T02:34:04.820Z,103108.39
2019-02-14T02:36:32.639Z,103103.43
2019-02-14T02:39:00.406Z,103107.45
2019-02-14T02:41:28.157Z,103111.52
2019-02-14T02:43:55.922Z,103122.30
2019-02-14T02:46:23.753Z,103122.34
2019-02-14T02:48:51.644Z,103129.50
2019-02-14T02:51:19.391Z,103127.20
2019-02-14T02:53:47.139Z,103128.98
2019-02-14T02:56:14.945Z,103137.48
2019-02-14T02:58:42.757Z,103134.30
2019-02-14T03:01:10.508Z,103135.67
2019-02-14T03:03:38.390Z,103138.80
2019-02-14T03:06:10.497Z,103142.33
2019-02-14T03:08:35.649Z,103152.23
2019-02-14T03:11:03.391Z,103147.17
2019-02-14T03:13:31.139Z,103144.08
2019-02-14T03:15:59.406Z,103157.94
2019-02-14T03:18:27.173Z,103159.63
2019-02-14T03:20:54.992Z,103159.72
2019-02-14T03:23:22.796Z,103157.51
2019-02-14T03:25:50.568Z,103155.26
2019-02-14T03:28:18.363Z,103154.85
2019-02-14T03:30:46.113Z,103161.66
2019-02-14T03:33:14.095Z,103156.26
2019-02-14T03:35:41.844Z,103158.85
2019-02-14T03:38:09.593Z,103150.32
2019-02-14T03:40:37.373Z,103147.17
2019-02-14T03:43:05.109Z,103150.80
2019-02-14T03:45:32.849Z,103153.54
2019-02-14T03:48:00.649Z,103148.20
2019-02-14T03:50:28.392Z,103150.86
2019-02-14T03:52:56.130Z,103158.45
2019-02-14T03:55:23.984Z,103156.53
2019-02-14T03:57:51.861Z,103160.66
2019-02-14T04:00:19.644Z,103161.60
2019-02-14T04:02:47.412Z,103162.44
2019-02-14T04:05:15.513Z,103159.79
2019-02-14T04:07:43.278Z,103161.10
2019-02-14T04:10:11.805Z,103159.79
2019-02-14T04:12:39.713Z,103154.92
2019-02-14T04:15:08.366Z,103143.76
2019-02-14T04:17:36.135Z,103158.47
2019-02-14T04:20:04.026Z,103163.34
2019-02-14T04:22:31.978Z,103155.29
2019-02-14T04:24:59.726Z,103159.82
2019-02-14T04:27:27.487Z,103163.31
2019-02-14T04:29:55.322Z,103153.08
2019-02-14T04:32:23.192Z,103160.22
2019-02-14T04:34:51.034Z,103155.32
2019-02-14T04:37:18.836Z,103149.92
2019-02-14T04:39:46.583Z,103162.88
2019-02-14T04:42:15.163Z,103166.91
2019-02-14T04:44:43.047Z,103167.81
2019-02-14T04:47:10.773Z,103165.16
2019-02-14T04:49:38.539Z,103183.02
2019-02-14T04:52:06.528Z,103183.36
2019-02-14T04:54:34.375Z,103195.92
2019-02-14T04:57:02.180Z,103201.22
2019-02-14T04:59:30.344Z,103198.50
2019-02-14T05:01:58.194Z,103192.80
2019-02-14T05:04:25.948Z,103172.25
2019-02-14T05:06:53.851Z,103164.16
2019-02-14T05:09:21.858Z,103161.47
2019-02-14T05:11:49.625Z,103187.36
2019-02-14T05:14:17.437Z,103192.29
2019-02-14T05:16:45.178Z,103185.58
2019-02-14T05:19:12.952Z,103167.72
2019-02-14T05:21:40.692Z,103162.81
2019-02-14T05:24:08.481Z,103157.01
2019-02-14T05:26:36.218Z,103163.75
2019-02-14T05:29:04.009Z,103164.19
2019-02-14T05:31:32.173Z,103180.34
2019-02-14T05:34:00.071Z,103179.91
2019-02-14T05:36:27.872Z,103183.02
2019-02-14T05:38:55.622Z,103192.80
2019-02-14T05:41:23.350Z,103181.28
2019-02-14T05:43:51.232Z,103185.67
2019-02-14T05:46:19.018Z,103187.36
2019-02-14T05:48:46.792Z,103196.35
2019-02-14T05:51:14.612Z,103193.23
2019-02-14T05:53:42.365Z,103174.91
2019-02-14T05:56:10.299Z,103182.09
2019-02-14T05:58:38.136Z,103194.20
2019-02-14T06:01:06.565Z,103191.02
2019-02-14T06:03:34.473Z,103192.83
2019-02-14T06:06:02.357Z,103170.30
2019-02-14T06:08:30.206Z,103177.19
2019-02-14T06:10:58.037Z,103182.09
2019-02-14T06:13:25.882Z,103185.17
2019-02-14T06:15:53.677Z,103188.77
2019-02-14T06:18:21.833Z,103194.94
2019-02-14T06:20:49.692Z,103186.95
2019-02-14T06:23:17.479Z,103190.08
2019-02-14T06:25:45.285Z,103193.20
2019-02-14T06:28:13.067Z,103190.55
2019-02-14T06:30:40.888Z,103204.48
2019-02-14T06:33:08.832Z,103209.39
2019-02-14T06:35:36.692Z,103211.16
2019-02-14T06:38:04.452Z,103218.89
2019-02-14T06:41:08.717Z,103217.04
2019-02-14T06:43:36.483Z,103203.94
2019-02-14T06:46:04.382Z,103217.88
2019-02-14T06:48:32.317Z,103229.60
2019-02-14T06:51:00.080Z,103229.06
2019-02-14T06:53:27.823Z,103233.66
2019-02-14T06:55:55.776Z,103230.44
2019-02-14T06:58:23.602Z,103236.61
2019-02-14T07:00:51.479Z,103238.93
2019-02-14T07:03:19.261Z,103243.86
2019-02-14T07:05:47.598Z,103253.70
2019-02-14T07:08:16.626Z,103230.36
2019-02-14T07:10:45.988Z,103228.03
2019-02-14T07:13:15.823Z,103257.26
2019-02-14T07:15:44.376Z,103254.06
2019-02-14T07:18:28.483Z,103231.16
2019-02-14T07:20:53.530Z,103220.85
2019-02-14T07:23:22.446Z,103247.97
2019-02-14T07:25:51.036Z,103248.84
2019-02-14T07:28:19.197Z,103248.44
2019-02-14T07:30:47.145Z,103255.95
2019-02-14T07:33:15.061Z,103267.57
2019-02-14T07:35:42.884Z,103275.62
2019-02-14T07:38:10.840Z,103277.92
2019-02-14T07:40:38.655Z,103276.14
2019-02-14T07:43:06.660Z,103282.03
2019-02-14T07:45:34.809Z,103281.47
2019-02-14T07:48:02.796Z,103283.77
2019-02-14T07:50:31.028Z,103280.56
2019-02-14T07:52:59.081Z,103274.36
2019-02-14T07:55:27.637Z,103270.84
2019-02-14T07:57:55.752Z,103272.62
2019-02-14T08:00:24.240Z,103272.62
2019-02-14T08:02:52.289Z,103271.31
2019-02-14T08:05:20.641Z,103262.86
2019-02-14T08:07:48.565Z,103258.75
2019-02-14T08:10:18.277Z,103254.22
2019-02-14T08:12:47.420Z,103251.56
2019-02-14T08:15:15.524Z,103251.67
2019-02-14T08:17:43.888Z,103246.23
2019-02-14T08:20:12.064Z,103251.16
2019-02-14T08:22:40.063Z,103253.37
2019-02-14T08:25:09.080Z,103251.64
2019-02-14T08:27:36.992Z,103255.59
2019-02-14T08:30:05.405Z,103259.66
2019-02-14T08:32:33.160Z,103255.19
2019-02-14T08:35:00.962Z,103249.75
2019-02-14T08:37:28.915Z,103255.16
2019-02-14T08:39:56.788Z,103260.09
2019-02-14T08:42:24.635Z,103257.33
2019-02-14T08:44:52.716Z,103260.53
2019-02-14T08:47:20.886Z,103258.72
2019-02-14T08:49:48.846Z,103260.53
2019-02-14T08:52:17.510Z,103262.31
2019-02-14T08:54:45.607Z,103256.47
2019-02-14T08:57:13.873Z,103261.41
2019-02-14T08:59:41.757Z,103257.81
2019-02-14T09:02:09.836Z,103254.17
2019-02-14T09:04:37.695Z,103256.47
2019-02-14T09:07:06.019Z,103259.59
2019-02-14T09:09:34.119Z,103254.22
2019-02-14T09:12:02.107Z,103255.12
2019-02-14T09:14:29.998Z,103251.06
2019-02-14T09:16:58.491Z,103251.60
2019-02-14T09:19:26.367Z,103224.08
2019-02-14T09:21:54.235Z,103252.08
2019-02-14T09:24:23.612Z,103252.00
2019-02-14T09:26:51.460Z,103255.16
2019-02-14T09:29:19.465Z,103258.28
2019-02-14T09:31:52.933Z,103246.23
2019-02-14T09:34:20.999Z,103253.81
2019-02-14T09:36:48.787Z,103245.28
2019-02-14T09:39:16.745Z,103244.02
2019-02-14T09:41:44.633Z,103243.55
2019-02-14T09:44:13.128Z,103247.61
2019-02-14T09:46:41.196Z,103248.91
2019-02-14T09:49:09.097Z,103241.25
2019-02-14T09:51:36.943Z,103237.30
2019-02-14T09:54:04.829Z,103223.50
2019-02-14T09:56:32.857Z,103221.68
2019-02-14T09:59:01.325Z,103218.42
2019-02-14T10:01:29.242Z,103217.08
2019-02-14T10:03:57.125Z,103231.02
2019-02-14T10:06:24.971Z,103233.27
2019-02-14T10:08:53.031Z,103230.58
2019-02-14T10:11:20.902Z,103230.64
2019-02-14T10:13:50.227Z,103232.80
2019-02-14T10:16:18.135Z,103236.02
2019-02-14T10:18:46.059Z,103230.91
2019-02-14T10:21:13.843Z,103228.40
2019-02-14T10:23:42.183Z,103226.95
2019-02-14T10:26:10.613Z,103224.84
2019-02-14T10:28:38.492Z,103223.96
2019-02-14T10:31:06.389Z,103221.75
2019-02-14T10:33:35.401Z,103222.66
2019-02-14T10:36:04.524Z,103220.88
2019-02-14T10:38:32.508Z,103223.56
2019-02-14T10:41:00.524Z,103225.78
2019-02-14T10:43:28.534Z,103231.66
2019-02-14T10:45:56.799Z,103232.16
2019-02-14T10:48:33.320Z,103214.66
2019-02-14T10:51:01.188Z,103228.59
2019-02-14T10:53:29.416Z,103236.72
2019-02-14T10:55:57.277Z,103236.72
2019-02-14T10:58:25.207Z,103243.84
2019-02-14T11:00:53.015Z,103243.00
2019-02-14T11:03:23.109Z,103237.25
2019-02-14T11:05:51.038Z,103245.28
2019-02-14T11:08:31.586Z,103241.69
2019-02-14T11:10:55.794Z,103239.06
2019-02-14T11:13:23.757Z,103209.37
2019-02-14T11:15:52.327Z,103243.63
2019-02-14T11:18:21.299Z,103236.87
2019-02-14T11:20:49.146Z,103239.97
2019-02-14T11:23:17.295Z,103246.75
2019-02-14T11:25:45.290Z,103241.40
2019-02-14T11:28:13.156Z,103245.05
2019-02-14T11:30:40.982Z,103234.29
2019-02-14T11:33:08.802Z,103239.70
2019-02-14T11:35:36.731Z,103239.67
2019-02-14T11:38:04.510Z,103235.61
2019-02-14T11:40:32.446Z,103236.95
2019-02-14T11:43:00.390Z,103186.17
2019-02-14T11:45:28.452Z,103233.06
2019-02-14T11:47:56.697Z,103227.70
2019-02-14T11:50:24.809Z,103211.05
2019-02-14T11:52:52.687Z,103222.80
2019-02-14T11:55:21.885Z,103220.12
2019-02-14T11:57:49.742Z,103222.36
2019-02-14T12:00:22.014Z,103219.21
2019-02-14T12:02:55.569Z,103220.59
2019-02-14T12:05:19.457Z,103217.42
2019-02-14T12:07:47.244Z,103224.13
2019-02-14T12:10:15.035Z,103217.92
2019-02-14T12:12:43.095Z,103219.26
2019-02-14T12:15:11.181Z,103217.47
2019-02-14T12:17:39.553Z,103216.61
2019-02-14T12:20:12.408Z,103209.91
2019-02-14T12:22:44.581Z,103208.55
2019-02-14T12:25:08.539Z,103202.74
2019-02-14T12:27:36.586Z,103197.38
2019-02-14T12:30:05.730Z,103197.85
2019-02-14T12:32:34.016Z,103193.34
2019-02-14T12:35:02.777Z,103188.91
2019-02-14T12:37:35.463Z,103187.58
2019-02-14T12:40:04.422Z,103183.06
2019-02-14T12:42:32.370Z,103171.87
2019-02-14T12:45:00.309Z,103169.65
2019-02-14T12:47:29.915Z,103172.77
2019-02-14T12:50:00.331Z,103170.55
2019-02-14T12:52:28.428Z,103166.54
2019-02-14T12:54:57.017Z,103161.61
2019-02-14T12:57:25.176Z,103162.05
2019-02-14T12:59:53.363Z,103156.23
2019-02-14T13:02:21.242Z,103160.79
2019-02-14T13:04:49.023Z,103154.48
2019-02-14T13:07:18.078Z,103152.26
2019-02-14T13:09:59.890Z,103150.94
2019-02-14T13:12:28.553Z,103143.29
2019-02-14T13:14:57.761Z,103154.07
2019-02-14T13:17:25.648Z,103146.45
2019-02-14T13:19:53.524Z,103145.58
2019-02-14T13:22:21.671Z,103144.69
2019-02-14T13:24:49.534Z,103137.94
2019-02-14T13:27:18.252Z,103137.95
2019-02-14T13:29:46.279Z,103115.01
2019-02-14T13:32:14.814Z,103132.16
2019-02-14T13:34:42.963Z,103136.19
2019-02-14T13:37:11.481Z,103134.83
2019-02-14T13:39:40.425Z,103130.80
2019-02-14T13:42:09.656Z,103135.27
2019-02-14T13:44:38.336Z,103131.28
2019-02-14T13:47:06.337Z,103134.41
2019-02-14T13:49:34.781Z,103131.26
2019-02-14T13:52:03.527Z,103133.03
2019-02-14T13:54:33.393Z,103128.56
2019-02-14T13:57:01.313Z,103131.70
2019-02-14T13:59:32.020Z,103131.27
2019-02-14T14:02:01.716Z,103132.61
2019-02-14T14:04:30.956Z,103132.63
2019-02-14T14:07:00.258Z,103130.80
2019-02-14T14:09:28.377Z,103128.58
2019-02-14T14:11:56.385Z,103129.48
2019-02-14T14:14:25.135Z,103128.11
2019-02-14T14:17:00.612Z,103120.94
2019-02-14T14:19:30.589Z,103125.43
2019-02-14T14:21:58.863Z,103130.84
2019-02-14T14:24:27.418Z,103134.41
2019-02-14T14:26:55.717Z,103135.77
2019-02-14T14:29:23.559Z,103127.25
2019-02-14T14:31:51.321Z,103124.11
2019-02-14T14:34:20.217Z,103126.78
2019-02-14T14:36:48.619Z,103106.55
2019-02-14T14:39:16.688Z,103125.91
2019-02-14T14:41:46.083Z,103125.89
2019-02-14T14:44:33.177Z,103129.96
2019-02-14T14:47:10.440Z,103137.59
2019-02-14T14:49:38.966Z,103132.66
2019-02-14T14:52:07.698Z,103129.94
2019-02-14T14:54:36.105Z,103129.51
2019-02-14T14:57:03.959Z,103132.65
2019-02-14T14:59:32.021Z,103141.64
2019-02-14T15:02:01.009Z,103131.77
2019-02-14T15:04:28.822Z,103140.72
2019-02-14T15:06:56.589Z,103141.18
2019-02-14T15:09:25.077Z,103136.69
2019-02-14T15:11:52.957Z,103140.30
2019-02-14T15:14:20.739Z,103139.84
2019-02-14T15:16:48.729Z,103131.29
2019-02-14T15:19:23.997Z,103139.41
2019-02-14T15:21:53.127Z,103139.84
2019-02-14T15:24:20.969Z,103141.63
2019-02-14T15:26:48.766Z,103137.15
2019-02-14T15:29:16.569Z,103137.12
2019-02-14T15:31:44.348Z,103133.56
2019-02-14T15:34:12.679Z,103133.10
2019-02-14T15:36:41.330Z,103130.86
2019-02-14T15:39:09.675Z,103123.20
2019-02-14T15:41:37.910Z,103130.84
2019-02-14T15:44:05.808Z,103139.41
2019-02-14T15:46:34.748Z,103134.89
2019-02-14T15:49:02.706Z,103135.80
2019-02-14T15:51:31.674Z,103138.04
2019-02-14T15:53:59.616Z,103136.24
2019-02-14T15:56:29.313Z,103132.19
2019-02-14T15:59:03.318Z,103133.59
2019-02-14T16:01:35.107Z,103137.19
2019-02-14T16:04:04.938Z,103133.12
2019-02-14T16:06:33.979Z,103135.36
2019-02-14T16:09:01.839Z,103130.42
2019-02-14T16:11:31.443Z,103135.82
2019-02-14T16:13:59.598Z,103134.05
2019-02-14T16:16:27.840Z,103136.75
2019-02-14T16:18:58.693Z,103134.00
2019-02-14T16:21:34.973Z,103124.59
2019-02-14T16:24:05.751Z,103134.92
2019-02-14T16:26:35.330Z,103130.42
2019-02-14T16:29:04.454Z,103133.12
2019-02-14T16:31:32.381Z,103138.53
2019-02-14T16:34:01.762Z,103138.95
2019-02-14T16:36:32.450Z,103136.28
2019-02-14T16:39:01.430Z,103142.09
2019-02-14T16:41:30.048Z,103148.83
2019-02-14T16:43:58.443Z,103137.58
2019-02-14T16:46:27.173Z,103142.98
2019-02-14T16:48:55.481Z,103142.10
2019-02-14T16:51:24.095Z,103139.41
2019-02-14T16:53:56.876Z,103135.80
2019-02-14T16:56:25.111Z,103138.50
2019-02-14T16:58:52.997Z,103142.08
2019-02-14T17:01:28.730Z,103136.69
2019-02-14T17:03:56.590Z,103139.84
2019-02-14T17:06:27.778Z,103142.99
2019-02-14T17:08:57.140Z,103141.63
2019-02-14T17:11:25.105Z,103137.64
2019-02-14T17:13:53.524Z,103135.80
2019-02-14T17:16:23.516Z,103138.50
2019-02-14T17:21:51.911Z,103141.64
2019-02-14T17:24:19.840Z,103145.68
2019-02-14T17:26:47.985Z,103144.33
2019-02-14T17:29:16.135Z,103143.86
2019-02-14T17:31:49.485Z,103150.16
2019-02-14T17:34:20.426Z,103144.78
2019-02-14T17:36:48.321Z,103141.17
2019-02-14T17:39:16.326Z,103140.72
2019-02-14T17:41:44.685Z,103146.62
2019-02-14T17:44:12.963Z,103145.69
2019-02-14T17:46:41.011Z,103149.73
2019-02-14T17:49:10.029Z,103152.41
2019-02-14T17:51:38.377Z,103148.36
2019-02-14T17:54:07.117Z,103146.13
2019-02-14T17:56:35.925Z,103151.52
2019-02-14T17:59:05.099Z,103148.83
2019-02-14T18:01:33.096Z,103146.13
2019-02-14T18:04:02.803Z,103147.45
2019-02-14T18:06:30.834Z,103147.91
2019-02-14T18:11:43.543Z,103156.00
2019-02-14T18:14:18.069Z,103150.16
2019-02-14T18:16:46.449Z,103150.61
2019-02-14T18:22:49.153Z,103146.56
2019-02-14T18:25:17.192Z,103152.88
2019-02-14T18:27:45.193Z,103149.73
2019-02-14T18:30:13.598Z,103155.09
2019-02-14T18:32:41.463Z,103152.41
2019-02-14T18:35:09.684Z,103149.69
2019-02-14T18:37:37.954Z,103155.09
2019-02-14T18:40:06.021Z,103150.61
2019-02-14T18:42:34.003Z,103155.56
2019-02-14T18:45:01.975Z,103154.20
2019-02-14T18:47:39.291Z,103147.45
2019-02-14T18:50:00.531Z,103151.08
2019-02-14T18:52:28.994Z,103152.86
2019-02-14T18:54:56.959Z,103152.42
2019-02-14T18:57:25.431Z,103151.50
2019-02-14T18:59:53.704Z,103154.63
2019-02-14T19:02:22.777Z,103154.67
2019-02-14T19:04:51.064Z,103154.22
2019-02-14T19:07:19.377Z,103151.08
2019-02-14T19:09:47.342Z,103147.42
2019-02-14T19:12:15.522Z,103152.34
2019-02-14T19:14:43.700Z,103154.66
2019-02-14T19:17:12.359Z,103155.50
2019-02-14T19:19:40.133Z,103157.33
2019-02-14T19:22:08.347Z,103158.19
2019-02-14T19:24:36.168Z,103162.70
2019-02-14T19:27:04.124Z,103164.92
2019-02-14T19:29:32.249Z,103157.27
2019-02-14T19:32:00.079Z,103158.20
2019-02-14T19:34:27.908Z,103133.01
2019-02-14T19:36:55.802Z,103167.17
2019-02-14T19:39:23.814Z,103161.80
2019-02-14T19:41:51.778Z,103156.39
2019-02-14T19:44:19.622Z,103151.48
2019-02-14T19:46:49.814Z,103151.00
2019-02-14T19:49:16.996Z,103149.23
2019-02-14T19:51:44.898Z,103151.00
2019-02-14T19:54:12.707Z,103145.17
2019-02-14T19:56:43.675Z,103135.27
2019-02-14T19:59:11.587Z,103138.90
2019-02-14T20:01:39.447Z,103145.61
2019-02-14T20:04:07.637Z,103135.29
2019-02-14T20:06:35.472Z,103136.65
2019-02-14T20:09:04.653Z,103129.47
2019-02-14T20:11:36.827Z,103130.78
2019-02-14T20:14:02.128Z,103130.80
2019-02-14T20:16:30.112Z,103137.48
2019-02-14T20:18:58.011Z,103131.69
2019-02-14T20:21:32.262Z,103138.36
2019-02-14T20:23:55.643Z,103133.94
2019-02-14T20:26:23.591Z,103135.71
2019-02-14T20:28:53.704Z,103133.01
2019-02-14T20:31:24.087Z,103139.31
2019-02-14T20:33:52.362Z,103140.63
2019-02-14T20:36:20.424Z,103141.11
2019-02-14T20:38:48.297Z,103143.33
2019-02-14T20:41:16.508Z,103138.86
2019-02-14T20:43:44.325Z,103149.17
2019-02-14T20:46:12.451Z,103146.89
2019-02-14T20:48:40.677Z,103149.15
2019-02-14T20:51:08.768Z,103155.40
2019-02-14T20:53:37.737Z,103153.59
2019-02-14T20:56:05.691Z,103146.86
2019-02-14T20:58:33.578Z,103144.52
2019-02-14T21:01:01.782Z,103149.89
2019-02-14T21:03:29.749Z,103129.14
2019-02-14T21:09:12.983Z,103175.41
2019-02-14T21:11:41.667Z,103170.81
2019-02-14T21:14:09.806Z,103173.04
2019-02-14T21:16:38.550Z,103170.35
2019-02-14T21:19:06.518Z,103174.89
2019-02-14T21:21:34.818Z,103172.66
2019-02-14T21:24:03.286Z,103169.08
2019-02-14T21:26:32.921Z,103174.41
2019-02-14T21:29:01.080Z,103173.05
2019-02-14T21:31:29.551Z,103174.45
2019-02-14T21:33:58.702Z,103175.80
2019-02-14T21:36:26.705Z,103174.42
2019-02-14T21:38:55.570Z,103171.23
2019-02-14T21:41:26.223Z,103171.66
2019-02-14T21:43:54.418Z,103167.22
2019-02-14T21:46:22.713Z,103162.72
2019-02-14T21:48:50.741Z,103170.30
2019-02-14T21:51:18.838Z,103172.11
2019-02-14T21:53:47.641Z,103170.80
2019-02-14T21:56:17.553Z,103160.03
2019-02-14T21:58:50.734Z,103168.56
2019-02-14T22:01:22.814Z,103150.55
2019-02-14T22:03:50.833Z,103164.51
2019-02-14T22:06:19.403Z,103170.39
2019-02-14T22:08:47.365Z,103171.23
2019-02-14T22:11:15.315Z,103174.83
2019-02-14T22:13:43.344Z,103168.08
2019-02-14T22:16:14.009Z,103173.91
2019-02-14T22:18:42.040Z,103176.17
2019-02-14T22:21:36.914Z,103173.89
2019-02-14T22:24:05.255Z,103176.59
2019-02-14T22:26:33.772Z,103171.98
2019-02-14T22:29:03.208Z,103176.11
2019-02-14T22:31:31.303Z,103171.15
2019-02-14T22:33:59.189Z,103176.58
2019-02-14T22:36:27.308Z,103175.67
2019-02-14T22:38:55.448Z,103173.42
2019-02-14T22:41:24.047Z,103177.78
2019-02-14T22:43:52.084Z,103180.48
2019-02-14T22:46:20.129Z,103179.99
2019-02-14T22:48:49.462Z,103175.96
2019-02-14T22:55:29.200Z,103175.91
2019-02-14T22:57:57.166Z,103178.98
2019-02-14T23:00:29.491Z,103178.43
2019-02-14T23:03:00.107Z,103154.80
2019-02-14T23:05:27.952Z,103173.94
2019-02-14T23:08:07.786Z,103178.93
2019-02-14T23:10:37.266Z,103179.80
2019-02-14T23:13:05.977Z,103173.00
2019-02-14T23:15:39.295Z,103169.11
2019-02-14T23:18:07.762Z,103173.41
2019-02-14T23:20:35.702Z,103128.45
2019-02-14T23:23:03.999Z,103174.75
2019-02-14T23:25:31.842Z,103170.28
2019-02-14T23:28:01.851Z,103169.66
2019-02-14T23:30:29.723Z,103153.95
2019-02-14T23:33:01.130Z,103177.47
2019-02-14T23:35:29.106Z,103175.59
2019-02-14T23:38:17.563Z,103166.50
2019-02-14T23:40:45.792Z,103167.88
2019-02-14T23:43:13.662Z,103151.70
2019-02-14T23:45:42.859Z,103166.50
2019-02-14T23:48:10.654Z,103161.87
2019-02-14T23:50:38.419Z,103161.87
2019-02-14T23:53:06.158Z,103163.59
2019-02-14T23:55:34.027Z,103165.77
2019-02-14T23:58:01.759Z,103163.44
